Time;durP1;ratioP1;P1;durP2;ratioP2;P2;SDS_P1;SDS_P2;PMS_P1;PMS_P2;Temp;Humidity;BMP_temperature;BMP_pressure;BME280_temperature;BME280_humidity;BME280_pressure;Samples;Min_cycle;Max_cycle;Signal;HPM_P1;HPM_P2
2022/12/04 00:01:02;;;;;;;96.15;65.15;;;16.00;59.20;;;;;;5024254;27;91701;-56
2022/12/04 00:03:28;;;;;;;93.28;63.78;;;16.00;59.30;;;;;;5034146;27;89759;-54
2022/12/04 00:06:05;;;;;;;90.28;63.80;;;16.00;59.50;;;;;;5029065;27;91002;-56
2022/12/04 00:08:31;;;;;;;93.55;63.83;;;16.00;59.30;;;;;;5026180;27;90289;-55
2022/12/04 00:10:57;;;;;;;93.80;64.07;;;15.90;59.20;;;;;;5024853;27;91152;-56
2022/12/04 00:13:23;;;;;;;91.90;64.35;;;15.90;59.30;;;;;;5030889;27;91220;-55
2022/12/04 00:15:49;;;;;;;93.60;63.92;;;16.00;59.30;;;;;;5028858;27;90256;-55
2022/12/04 00:18:14;;;;;;;90.07;62.45;;;15.90;59.20;;;;;;5027363;27;91259;-54
2022/12/04 00:20:40;;;;;;;88.50;62.53;;;15.90;59.20;;;;;;5026399;27;90126;-52
2022/12/04 00:23:06;;;;;;;92.70;63.45;;;15.90;59.20;;;;;;5020558;27;90110;-57
2022/12/04 00:25:31;;;;;;;92.68;63.20;;;15.90;59.40;;;;;;5032574;27;89947;-55
2022/12/04 00:27:57;;;;;;;90.78;62.30;;;15.90;59.20;;;;;;5034308;27;90664;-55
2022/12/04 00:30:23;;;;;;;91.30;63.13;;;15.90;59.30;;;;;;5035469;27;89230;-52
2022/12/04 00:32:49;;;;;;;89.40;62.60;;;15.90;59.30;;;;;;5008788;27;93178;-54
2022/12/04 00:35:14;;;;;;;88.40;61.42;;;15.90;59.30;;;;;;5012105;27;90092;-55
2022/12/04 00:37:40;;;;;;;88.35;62.58;;;15.80;59.20;;;;;;5028203;27;91134;-54
2022/12/04 00:40:06;;;;;;;88.03;61.85;;;15.80;59.20;;;;;;5031354;27;89622;-54
2022/12/04 00:42:32;;;;;;;90.63;63.28;;;15.80;59.10;;;;;;5033973;27;90898;-55
2022/12/04 00:44:58;;;;;;;88.95;62.03;;;15.80;59.10;;;;;;5014110;27;89814;-53
2022/12/04 00:47:23;;;;;;;91.75;61.90;;;15.80;59.20;;;;;;5030182;27;89678;-56
2022/12/04 00:49:49;;;;;;;90.32;62.55;;;15.80;59.20;;;;;;5032812;27;90431;-53
2022/12/04 00:52:15;;;;;;;90.40;62.17;;;15.70;59.20;;;;;;5029098;27;92059;-56
2022/12/04 00:54:40;;;;;;;86.38;60.58;;;15.70;59.40;;;;;;5022641;27;91639;-55
2022/12/04 00:57:06;;;;;;;89.85;61.88;;;15.70;59.50;;;;;;5026768;27;91064;-54
2022/12/04 00:59:32;;;;;;;87.55;60.35;;;15.70;59.50;;;;;;5033733;27;95649;-53
2022/12/04 01:01:57;;;;;;;87.70;61.13;;;15.70;59.60;;;;;;5027624;27;91200;-55
2022/12/04 01:04:23;;;;;;;88.10;61.58;;;15.70;59.40;;;;;;5018724;27;91981;-55
2022/12/04 01:06:49;;;;;;;88.03;61.05;;;15.60;59.40;;;;;;5029738;27;90410;-53
2022/12/04 01:09:14;;;;;;;85.30;60.63;;;15.60;59.70;;;;;;5010355;27;91857;-54
2022/12/04 01:11:40;;;;;;;86.22;61.40;;;15.50;59.60;;;;;;5026457;27;90392;-54
2022/12/04 01:14:06;;;;;;;85.22;59.65;;;15.50;59.50;;;;;;5023863;27;90299;-54
2022/12/04 01:16:34;;;;;;;84.05;60.53;;;15.50;59.60;;;;;;5028034;27;90217;-55
2022/12/04 01:19:01;;;;;;;86.70;61.38;;;15.50;59.70;;;;;;5034920;27;89356;-53
2022/12/04 01:21:26;;;;;;;88.30;61.13;;;15.50;59.70;;;;;;5031428;27;92603;-56
2022/12/04 01:23:52;;;;;;;86.15;60.58;;;15.50;59.80;;;;;;5030419;27;91571;-56
2022/12/04 01:26:18;;;;;;;84.30;59.92;;;15.40;59.80;;;;;;5003175;27;91468;-55
2022/12/04 01:28:44;;;;;;;86.68;60.95;;;15.30;59.90;;;;;;5029839;27;90080;-55
2022/12/04 01:31:16;;;;;;;84.30;59.80;;;15.30;59.90;;;;;;5029458;27;90361;-54
2022/12/04 01:33:42;;;;;;;85.30;60.78;;;15.40;59.90;;;;;;5014088;27;89905;-54
2022/12/04 01:36:10;;;;;;;83.43;59.53;;;15.30;59.80;;;;;;5028803;27;90947;-53
2022/12/04 01:38:36;;;;;;;84.78;60.58;;;15.30;59.90;;;;;;5021161;27;90352;-54
2022/12/04 01:41:02;;;;;;;83.65;60.05;;;15.20;59.90;;;;;;5022260;27;91746;-54
2022/12/04 01:43:31;;;;;;;83.45;59.95;;;15.20;59.90;;;;;;5010548;27;91083;-53
2022/12/04 01:46:00;;;;;;;86.45;59.72;;;15.20;59.90;;;;;;5033180;27;90822;-55
2022/12/04 01:48:33;;;;;;;86.43;60.08;;;15.20;59.90;;;;;;5021593;27;92980;-51
2022/12/04 01:51:21;;;;;;;82.50;59.58;;;15.20;60.00;;;;;;5023234;27;94234;-56
2022/12/04 01:53:53;;;;;;;84.38;60.63;;;15.10;60.40;;;;;;5027990;27;91177;-55
2022/12/04 01:56:24;;;;;;;88.10;60.08;;;15.10;60.00;;;;;;5027770;27;89914;-54
2022/12/04 01:58:52;;;;;;;85.70;60.00;;;15.10;60.00;;;;;;5023162;27;90227;-54
2022/12/04 02:01:18;;;;;;;83.32;59.20;;;15.10;60.10;;;;;;5028567;27;91709;-52
2022/12/04 02:03:44;;;;;;;82.70;59.38;;;15.10;60.10;;;;;;5026821;27;90029;-55
2022/12/04 02:06:09;;;;;;;83.25;59.17;;;15.00;60.10;;;;;;5029669;27;90054;-55
2022/12/04 02:08:36;;;;;;;83.28;59.42;;;15.00;60.00;;;;;;5025363;27;89335;-53
2022/12/04 02:11:31;;;;;;;84.93;59.83;;;15.00;60.00;;;;;;5021986;27;91859;-52
2022/12/04 02:14:19;;;;;;;83.82;59.58;;;15.00;60.20;;;;;;5030179;27;90137;-55
2022/12/04 02:16:48;;;;;;;86.53;59.38;;;15.00;60.30;;;;;;5021680;27;91065;-56
2022/12/04 02:19:17;;;;;;;85.13;59.92;;;14.90;60.30;;;;;;5035026;27;89886;-53
2022/12/04 02:21:45;;;;;;;82.53;59.58;;;14.90;60.30;;;;;;5025629;27;91133;-55
2022/12/04 02:24:36;;;;;;;83.32;59.00;;;14.80;60.40;;;;;;5025398;27;90060;-54
2022/12/04 02:27:06;;;;;;;81.90;58.75;;;14.80;60.30;;;;;;5027460;27;90375;-54
2022/12/04 02:29:36;;;;;;;83.78;60.00;;;14.80;60.30;;;;;;5028684;27;90190;-55
2022/12/04 02:32:20;;;;;;;85.35;60.05;;;14.80;60.50;;;;;;5030660;27;90313;-55
2022/12/04 02:35:14;;;;;;;83.53;58.92;;;14.80;60.40;;;;;;5021322;27;89541;-54
2022/12/04 02:37:51;;;;;;;83.47;60.00;;;14.80;60.30;;;;;;4990543;27;91630;-55
2022/12/04 02:40:32;;;;;;;83.55;59.15;;;14.70;60.40;;;;;;5031101;27;90822;-54
2022/12/04 02:43:12;;;;;;;84.03;59.90;;;14.70;60.50;;;;;;5026299;27;91408;-55
2022/12/04 02:45:44;;;;;;;81.20;59.72;;;14.70;60.40;;;;;;5018269;27;90623;-54
2022/12/04 02:48:12;;;;;;;82.60;59.25;;;14.70;60.40;;;;;;5023344;27;90220;-55
2022/12/04 02:50:40;;;;;;;83.65;60.15;;;14.70;61.20;;;;;;5009156;27;89872;-55
2022/12/04 02:53:18;;;;;;;81.85;58.72;;;14.60;60.50;;;;;;5023969;27;90607;-53
2022/12/04 02:56:08;;;;;;;83.88;58.92;;;14.60;60.60;;;;;;5023580;27;91720;-55
2022/12/04 02:58:39;;;;;;;82.80;59.55;;;14.60;60.70;;;;;;5028335;27;90047;-55
2022/12/04 03:01:18;;;;;;;;;;;14.60;60.70;;;;;;5020581;27;89833;-55
2022/12/04 03:04:00;;;;;;;82.70;59.05;;;14.60;60.60;;;;;;5022326;27;95661;-52
2022/12/04 03:06:30;;;;;;;83.03;59.08;;;14.50;60.70;;;;;;5025477;27;91965;-55
2022/12/04 03:09:20;;;;;;;83.95;59.55;;;14.50;60.70;;;;;;5028208;27;90757;-54
2022/12/04 03:11:51;;;;;;;81.50;58.28;;;14.50;60.80;;;;;;5009914;27;90912;-54
2022/12/04 03:14:40;;;;;;;83.97;59.58;;;14.50;60.90;;;;;;5029079;27;90379;-52
2022/12/04 03:17:20;;;;;;;82.75;58.75;;;14.40;60.80;;;;;;5016001;27;90049;-54
2022/12/04 03:19:52;;;;;;;80.90;58.03;;;14.40;61.80;;;;;;5027147;27;89908;-55
2022/12/04 03:22:19;;;;;;;85.32;60.60;;;14.40;60.90;;;;;;5015400;27;91125;-55
2022/12/04 03:24:50;;;;;;;80.05;58.95;;;14.40;61.00;;;;;;5029763;27;90125;-57
2022/12/04 03:27:31;;;;;;;81.68;58.15;;;14.40;61.10;;;;;;5020634;27;90352;-55
2022/12/04 03:30:13;;;;;;;80.45;58.70;;;14.40;61.00;;;;;;5014264;27;92109;-54
2022/12/04 03:32:44;;;;;;;83.25;59.22;;;14.30;61.00;;;;;;5015434;27;90004;-53
2022/12/04 03:35:14;;;;;;;81.85;59.08;;;14.30;60.80;;;;;;5026059;27;91689;-55
2022/12/04 03:37:46;;;;;;;82.93;59.78;;;14.40;60.80;;;;;;5028523;27;90727;-53
2022/12/04 03:40:25;;;;;;;81.32;58.90;;;14.30;61.00;;;;;;5036458;27;89468;-54
2022/12/04 03:43:03;;;;;;;83.00;59.78;;;14.30;60.80;;;;;;5027121;27;90283;-50
2022/12/04 03:46:01;;;;;;;83.00;59.13;;;14.30;60.90;;;;;;5034319;27;89960;-54
2022/12/04 03:48:35;;;;;;;81.68;59.15;;;14.30;60.80;;;;;;5022236;27;90169;-52
2022/12/04 03:51:22;;;;;;;83.03;59.53;;;14.30;60.90;;;;;;5022716;27;89998;-52
2022/12/04 03:53:58;;;;;;;81.22;58.83;;;14.20;60.80;;;;;;5020398;27;89757;-54
2022/12/04 03:56:29;;;;;;;81.50;58.78;;;14.30;60.90;;;;;;5021170;27;90286;-51
2022/12/04 03:59:02;;;;;;;82.53;59.15;;;14.20;60.90;;;;;;5029648;27;90763;-55
2022/12/04 04:01:32;;;;;;;81.70;58.38;;;14.20;60.80;;;;;;5028471;27;93665;-55
2022/12/04 04:03:59;;;;;;;81.47;58.67;;;14.20;60.90;;;;;;5025528;27;90180;-53
2022/12/04 04:06:31;;;;;;;82.18;59.38;;;14.20;60.80;;;;;;5028468;27;90185;-53
2022/12/04 04:08:59;;;;;;;;;;;14.20;60.80;;;;;;5023924;27;90861;-55
2022/12/04 04:11:31;;;;;;;82.50;59.38;;;14.20;60.90;;;;;;5031746;27;90645;-51
2022/12/04 04:25:26;;;;;;;82.07;58.88;;;14.10;60.90;;;;;;5034319;27;89923;-55
2022/12/04 04:27:54;;;;;;;83.43;59.42;;;14.10;60.70;;;;;;5021258;27;93934;-52
2022/12/04 04:30:20;;;;;;;85.22;60.40;;;14.10;60.80;;;;;;5016792;27;89951;-55
2022/12/04 04:33:00;;;;;;;80.18;58.28;;;14.10;60.80;;;;;;5021071;27;90804;-53
2022/12/04 04:35:44;;;;;;;82.68;60.03;;;14.10;61.00;;;;;;5002497;27;90109;-55
2022/12/04 04:38:16;;;;;;;80.72;58.88;;;14.10;60.90;;;;;;5010815;27;90260;-55
2022/12/04 04:41:00;;;;;;;82.72;59.45;;;14.00;60.80;;;;;;5021776;27;90335;-51
2022/12/04 04:43:34;;;;;;;84.15;60.35;;;14.10;60.80;;;;;;5019690;27;92318;-55
2022/12/04 04:46:18;;;;;;;85.82;59.63;;;14.00;60.60;;;;;;5032342;27;88788;-54
2022/12/04 04:48:48;;;;;;;82.07;59.13;;;14.00;60.70;;;;;;5019774;27;90136;-53
2022/12/04 04:51:14;;;;;;;87.45;60.35;;;14.00;60.70;;;;;;5020866;27;90447;-54
2022/12/04 04:53:52;;;;;;;87.07;61.30;;;14.00;60.80;;;;;;5026392;27;92475;-54
2022/12/04 04:56:19;;;;;;;82.70;59.67;;;13.90;60.90;;;;;;5024806;27;90631;-53
2022/12/04 04:58:45;;;;;;;80.88;58.45;;;13.90;61.00;;;;;;5015147;27;94826;-53
2022/12/04 05:01:13;;;;;;;83.25;59.60;;;13.90;61.00;;;;;;5025659;27;90771;-56
2022/12/04 05:03:40;;;;;;;84.82;60.00;;;13.90;60.90;;;;;;5029947;27;90028;-54
2022/12/04 05:06:05;;;;;;;85.05;61.00;;;14.00;60.90;;;;;;5024948;27;90303;-55
2022/12/04 05:08:31;;;;;;;82.90;60.03;;;13.90;60.80;;;;;;5020659;27;93232;-55
2022/12/04 05:10:57;;;;;;;85.68;60.25;;;13.90;60.80;;;;;;5015737;27;90202;-55
2022/12/04 05:13:23;;;;;;;84.78;60.55;;;13.90;60.70;;;;;;5031626;27;89804;-53
2022/12/04 05:15:59;;;;;;;83.88;60.58;;;13.90;60.60;;;;;;5019085;27;89852;-52
2022/12/04 05:18:25;;;;;;;83.10;59.58;;;13.90;60.90;;;;;;5025233;27;91519;-54
2022/12/04 05:20:51;;;;;;;85.80;60.38;;;13.90;60.80;;;;;;5018534;27;91686;-54
2022/12/04 05:23:17;;;;;;;82.82;59.80;;;13.90;60.80;;;;;;5006476;27;90686;-54
2022/12/04 05:25:43;;;;;;;82.97;60.35;;;13.90;60.90;;;;;;5029141;27;91925;-54
2022/12/04 05:28:09;;;;;;;85.93;61.42;;;13.80;60.80;;;;;;5017797;27;91320;-55
2022/12/04 05:30:35;;;;;;;82.57;60.10;;;13.90;60.60;;;;;;5007790;27;89995;-56
2022/12/04 05:33:00;;;;;;;82.25;59.58;;;13.90;60.70;;;;;;5006809;27;90163;-56
2022/12/04 05:35:26;;;;;;;85.28;60.95;;;13.80;60.70;;;;;;5000023;27;94960;-54
2022/12/04 05:37:51;;;;;;;84.90;60.53;;;13.80;60.70;;;;;;5011182;27;90767;-53
2022/12/04 05:40:17;;;;;;;83.68;59.95;;;13.90;60.70;;;;;;5005476;27;90255;-54
2022/12/04 05:42:43;;;;;;;84.32;61.30;;;13.80;61.40;;;;;;5001800;27;94549;-53
2022/12/04 05:45:08;;;;;;;84.85;61.53;;;13.90;60.60;;;;;;5000369;27;91897;-54
2022/12/04 05:47:42;;;;;;;82.32;60.08;;;13.80;60.70;;;;;;5008194;27;90020;-53
2022/12/04 05:50:09;;;;;;;83.88;60.50;;;13.80;60.60;;;;;;5007547;27;90434;-54
2022/12/04 05:52:35;;;;;;;82.72;59.88;;;13.80;60.50;;;;;;5004929;27;91240;-50
2022/12/04 05:55:01;;;;;;;84.38;60.05;;;13.80;60.60;;;;;;5011100;27;91054;-51
2022/12/04 05:57:26;;;;;;;85.93;61.35;;;13.80;60.80;;;;;;5007508;27;90102;-52
2022/12/04 05:59:52;;;;;;;84.18;60.25;;;13.80;60.70;;;;;;5009769;27;90197;-53
2022/12/04 06:02:18;;;;;;;83.50;59.88;;;13.70;60.90;;;;;;5001068;27;91054;-54
2022/12/04 06:04:44;;;;;;;84.13;59.55;;;13.70;60.90;;;;;;5006456;27;90685;-55
2022/12/04 06:07:10;;;;;;;85.88;60.55;;;13.80;60.70;;;;;;4994397;27;93506;-54
2022/12/04 06:09:36;;;;;;;83.50;59.67;;;13.80;60.70;;;;;;5008601;27;90207;-54
2022/12/04 06:12:02;;;;;;;86.00;60.95;;;13.70;60.60;;;;;;5005681;27;89874;-54
2022/12/04 06:14:28;;;;;;;84.28;61.05;;;13.70;60.80;;;;;;4994566;27;90370;-54
2022/12/04 06:16:55;;;;;;;82.95;60.72;;;13.70;60.70;;;;;;5002531;27;90400;-53
2022/12/04 06:19:21;;;;;;;81.82;59.47;;;13.70;60.70;;;;;;5013715;27;90073;-51
2022/12/04 06:21:49;;;;;;;83.07;60.53;;;13.80;60.70;;;;;;5008690;27;91985;-55
2022/12/04 06:24:18;;;;;;;83.63;61.00;;;13.70;60.60;;;;;;5006862;27;90111;-53
2022/12/04 06:26:44;;;;;;;82.57;59.85;;;13.70;60.60;;;;;;5003381;27;90681;-53
2022/12/04 06:29:11;;;;;;;86.07;60.85;;;13.70;60.80;;;;;;5008634;27;92496;-53
2022/12/04 06:31:37;;;;;;;86.45;60.60;;;13.70;60.50;;;;;;5011239;27;90963;-55
2022/12/04 06:34:04;;;;;;;83.82;60.65;;;13.70;60.60;;;;;;5012862;27;90083;-54
2022/12/04 06:36:30;;;;;;;83.32;60.15;;;13.70;60.60;;;;;;4999636;27;90628;-55
2022/12/04 06:38:56;;;;;;;84.82;60.85;;;13.70;60.50;;;;;;5008061;27;91192;-54
2022/12/04 06:41:23;;;;;;;83.10;59.67;;;13.70;60.60;;;;;;5008432;27;89881;-53
2022/12/04 06:43:50;;;;;;;84.20;61.17;;;13.70;60.50;;;;;;5011368;27;89910;-54
2022/12/04 06:46:21;;;;;;;82.50;60.28;;;13.70;60.60;;;;;;5006977;27;90208;-55
2022/12/04 06:48:47;;;;;;;81.03;59.03;;;13.70;60.50;;;;;;5010953;27;90504;-53
2022/12/04 06:51:15;;;;;;;85.93;60.60;;;13.60;60.70;;;;;;5012524;27;89938;-54
2022/12/04 06:53:41;;;;;;;84.78;60.15;;;13.60;60.80;;;;;;5015955;27;91057;-57
2022/12/04 06:56:09;;;;;;;84.30;60.03;;;13.60;60.80;;;;;;5003571;27;91565;-51
2022/12/04 06:58:35;;;;;;;88.93;61.65;;;13.60;60.60;;;;;;5009571;27;92149;-55
2022/12/04 07:01:10;;;;;;;82.72;59.90;;;13.70;60.50;;;;;;5009576;27;89897;-54
2022/12/04 07:03:37;;;;;;;85.88;60.50;;;13.60;60.50;;;;;;5006846;27;89955;-54
2022/12/04 07:06:32;;;;;;;84.13;60.63;;;13.60;60.50;;;;;;5010911;28;89989;-54
2022/12/04 07:08:59;;;;;;;85.18;60.47;;;13.60;60.40;;;;;;5010388;27;90567;-56
2022/12/04 07:11:25;;;;;;;82.30;59.40;;;13.60;60.30;;;;;;5012893;27;90728;-55
2022/12/04 07:13:51;;;;;;;84.35;60.65;;;13.60;60.30;;;;;;5004543;28;92326;-54
2022/12/04 07:16:19;;;;;;;83.65;59.95;;;13.60;60.40;;;;;;5007531;27;90635;-55
2022/12/04 07:18:46;;;;;;;83.07;60.22;;;13.50;60.50;;;;;;5012443;27;90116;-52
2022/12/04 07:21:17;;;;;;;82.38;60.08;;;13.60;60.40;;;;;;5001397;27;91299;-53
2022/12/04 07:23:44;;;;;;;82.18;59.28;;;13.60;60.20;;;;;;5006214;27;90024;-54
2022/12/04 07:26:12;;;;;;;82.32;59.42;;;13.50;60.30;;;;;;5004988;27;90742;-54
2022/12/04 07:28:39;;;;;;;85.10;59.95;;;13.50;60.30;;;;;;5025471;27;90542;-54
2022/12/04 07:31:06;;;;;;;85.93;60.50;;;13.50;60.10;;;;;;5013991;27;91464;-52
2022/12/04 07:33:32;;;;;;;85.90;59.50;;;13.50;60.40;;;;;;5019503;27;91725;-51
2022/12/04 07:35:59;;;;;;;81.47;59.33;;;13.50;60.10;;;;;;5027209;27;90663;-51
2022/12/04 07:38:25;;;;;;;82.70;60.30;;;13.50;60.10;;;;;;5032159;27;91475;-55
2022/12/04 07:40:55;;;;;;;83.85;59.72;;;13.50;60.30;;;;;;4999961;27;89793;-54
2022/12/04 07:43:21;;;;;;;82.43;59.10;;;13.50;60.30;;;;;;5012274;27;90452;-52
2022/12/04 07:45:46;;;;;;;82.57;59.90;;;13.50;60.40;;;;;;5023018;27;92202;-54
2022/12/04 07:48:12;;;;;;;82.60;59.90;;;13.50;60.30;;;;;;5031069;27;94946;-52
2022/12/04 07:50:38;;;;;;;83.10;59.60;;;13.50;60.40;;;;;;5020715;27;91278;-53
2022/12/04 07:53:03;;;;;;;83.70;59.80;;;13.50;60.60;;;;;;5026114;27;90455;-54
2022/12/04 07:55:29;;;;;;;82.00;58.92;;;13.50;60.60;;;;;;4989019;27;91347;-54
2022/12/04 07:57:54;;;;;;;81.13;59.90;;;13.40;60.70;;;;;;5011874;27;92622;-55
2022/12/04 08:00:20;;;;;;;83.00;59.85;;;13.40;60.70;;;;;;5016992;27;91911;-53
2022/12/04 08:02:46;;;;;;;82.07;58.95;;;13.50;60.60;;;;;;4999168;27;89835;-54
2022/12/04 08:05:11;;;;;;;81.43;58.80;;;13.50;60.70;;;;;;5032405;27;90341;-52
2022/12/04 08:07:37;;;;;;;87.55;59.88;;;13.50;60.60;;;;;;5008671;27;90666;-50
2022/12/04 08:10:03;;;;;;;78.47;57.97;;;13.40;60.50;;;;;;5024202;27;96031;-55
2022/12/04 08:12:31;;;;;;;83.70;58.70;;;13.40;60.70;;;;;;5022344;27;90053;-54
2022/12/04 08:14:57;;;;;;;80.32;59.53;;;13.40;60.60;;;;;;5016855;27;91975;-55
2022/12/04 08:17:23;;;;;;;79.80;58.08;;;13.40;60.60;;;;;;5017689;27;91342;-53
2022/12/04 08:19:49;;;;;;;82.90;58.80;;;13.40;60.50;;;;;;5018219;27;90533;-52
2022/12/04 08:22:14;;;;;;;83.65;58.97;;;13.40;60.50;;;;;;5007046;27;90206;-51
2022/12/04 08:24:40;;;;;;;82.50;58.60;;;13.40;60.60;;;;;;5011189;27;91213;-53
2022/12/04 08:27:06;;;;;;;80.93;58.05;;;13.40;60.70;;;;;;5028750;27;92362;-50
2022/12/04 08:29:31;;;;;;;82.35;58.88;;;13.50;60.60;;;;;;5033615;27;90218;-52
2022/12/04 08:31:57;;;;;;;83.22;59.83;;;13.40;60.40;;;;;;5021962;27;90733;-53
2022/12/04 08:34:23;;;;;;;79.40;58.63;;;13.40;60.60;;;;;;5018027;27;94570;-54
2022/12/04 08:36:49;;;;;;;85.20;58.92;;;13.40;60.40;;;;;;5027432;27;91340;-54
2022/12/04 08:39:14;;;;;;;84.95;59.28;;;13.30;60.60;;;;;;5020726;27;90615;-53
2022/12/04 08:41:40;;;;;;;83.93;58.67;;;13.30;60.90;;;;;;5026332;27;89853;-52
2022/12/04 08:44:06;;;;;;;80.70;59.30;;;13.30;60.90;;;;;;5033378;27;91261;-55
2022/12/04 08:46:31;;;;;;;83.68;58.33;;;13.30;60.70;;;;;;5025469;27;90030;-53
2022/12/04 08:48:57;;;;;;;88.60;59.28;;;13.30;60.80;;;;;;5027784;27;91560;-51
2022/12/04 08:51:26;;;;;;;87.30;59.50;;;13.30;61.20;;;;;;5028598;27;89839;-57
2022/12/04 08:53:57;;;;;;;87.32;59.28;;;13.30;61.20;;;;;;5023459;27;90058;-54
2022/12/04 08:56:24;;;;;;;90.07;60.13;;;13.20;61.50;;;;;;5020622;27;89965;-55
2022/12/04 08:58:50;;;;;;;86.55;59.30;;;13.30;61.70;;;;;;5015724;27;92615;-54
2022/12/04 09:01:16;;;;;;;86.43;60.75;;;13.30;62.10;;;;;;5016982;27;92451;-54
2022/12/04 09:03:42;;;;;;;87.55;60.38;;;13.30;62.30;;;;;;5027046;27;91807;-54
2022/12/04 09:06:10;;;;;;;90.10;63.22;;;13.30;62.10;;;;;;5015933;27;89839;-53
2022/12/04 09:08:36;;;;;;;87.10;61.95;;;13.30;61.70;;;;;;5024402;27;89974;-53
2022/12/04 09:11:14;;;;;;;87.47;61.92;;;13.20;61.60;;;;;;5019881;27;90410;-56
2022/12/04 09:13:41;;;;;;;86.28;61.78;;;13.30;61.50;;;;;;5025625;27;92866;-56
2022/12/04 09:16:13;;;;;;;91.32;63.75;;;13.40;61.50;;;;;;4998789;27;94195;-55
2022/12/04 09:18:39;;;;;;;86.18;61.33;;;13.40;61.50;;;;;;5019582;27;94488;-54
2022/12/04 09:21:09;;;;;;;88.45;61.33;;;13.50;61.20;;;;;;5022228;27;94856;-55
2022/12/04 09:23:36;;;;;;;90.03;61.88;;;13.50;61.30;;;;;;5008570;27;97241;-54
2022/12/04 09:26:02;;;;;;;88.85;61.45;;;13.60;62.00;;;;;;5017777;27;90628;-54
2022/12/04 09:28:28;;;;;;;87.22;61.65;;;13.60;61.80;;;;;;5024743;27;90695;-55
2022/12/04 09:30:58;;;;;;;87.85;61.20;;;13.50;61.20;;;;;;5021710;27;91002;-55
2022/12/04 09:33:24;;;;;;;90.85;63.83;;;13.50;61.30;;;;;;4999006;27;92213;-55
2022/12/04 09:35:50;;;;;;;92.20;62.95;;;13.60;62.10;;;;;;5021023;27;92875;-52
2022/12/04 09:38:15;;;;;;;89.45;61.55;;;13.70;61.50;;;;;;5023713;27;90190;-54
2022/12/04 09:41:02;;;;;;;86.55;61.30;;;13.70;61.50;;;;;;5027678;27;89172;-53
2022/12/04 09:43:39;;;;;;;89.40;60.72;;;13.70;61.20;;;;;;5020072;27;90941;-54
2022/12/04 09:46:17;;;;;;;90.57;62.97;;;13.80;61.10;;;;;;5017087;27;91189;-53
2022/12/04 09:48:45;;;;;;;89.70;61.50;;;13.90;61.00;;;;;;5010833;27;91094;-52
2022/12/04 09:51:17;;;;;;;88.88;60.53;;;14.00;60.90;;;;;;4999731;27;90681;-50
2022/12/04 09:53:52;;;;;;;84.97;60.17;;;14.00;60.90;;;;;;4994795;27;90568;-54
2022/12/04 09:56:20;;;;;;;84.82;59.58;;;14.30;60.60;;;;;;5009901;27;96537;-54
2022/12/04 09:58:57;;;;;;;88.25;60.90;;;14.50;60.40;;;;;;5004890;27;93899;-51
2022/12/04 10:01:46;;;;;;;85.43;60.58;;;14.60;60.20;;;;;;5008192;27;90441;-51
2022/12/04 10:04:12;;;;;;;90.75;60.33;;;14.70;60.40;;;;;;5024635;27;90172;-53
2022/12/04 10:06:50;;;;;;;90.10;60.50;;;14.70;60.70;;;;;;5032129;27;90699;-50
2022/12/04 10:09:20;;;;;;;99.53;61.75;;;14.70;60.60;;;;;;5027472;27;91661;-49
2022/12/04 10:12:24;;;;;;;93.07;61.50;;;14.60;60.90;;;;;;5026080;27;92219;-45
2022/12/04 10:15:05;;;;;;;92.60;62.45;;;14.60;61.20;;;;;;4965307;28;95218;-49
2022/12/04 10:17:49;;;;;;;92.67;60.97;;;14.50;61.40;;;;;;4973323;28;92046;-53
2022/12/04 10:20:27;;;;;;;94.53;61.88;;;14.50;61.90;;;;;;5007935;27;91402;-55
2022/12/04 10:23:24;;;;;;;95.45;61.85;;;14.50;61.80;;;;;;5027152;27;91355;-52
2022/12/04 10:25:52;;;;;;;90.07;59.63;;;14.60;61.80;;;;;;5032058;27;90032;-52
2022/12/04 10:28:40;;;;;;;94.82;60.45;;;14.60;61.80;;;;;;5018263;27;90119;-50
2022/12/04 10:31:12;;;;;;;87.00;60.30;;;14.50;61.80;;;;;;5017893;27;91260;-50
2022/12/04 10:33:43;;;;;;;90.78;60.75;;;14.60;61.50;;;;;;5027338;27;89267;-48
2022/12/04 10:36:16;;;;;;;89.03;60.53;;;14.60;61.90;;;;;;5022411;27;90933;-54
2022/12/04 10:39:15;;;;;;;86.50;60.13;;;14.50;61.70;;;;;;5035595;27;90579;-52
2022/12/04 10:41:55;;;;;;;89.38;59.58;;;14.50;61.80;;;;;;5023312;27;90999;-52
2022/12/04 10:44:20;;;;;;;88.57;59.83;;;14.50;62.00;;;;;;5019973;27;91133;-50
2022/12/04 10:46:47;;;;;;;90.40;59.85;;;14.50;62.00;;;;;;5023867;27;90041;-54
2022/12/04 10:49:24;;;;;;;87.00;60.55;;;14.50;61.90;;;;;;5025249;27;90524;-54
2022/12/04 10:51:50;;;;;;;88.38;60.25;;;14.40;61.60;;;;;;5011401;27;90478;-46
2022/12/04 10:54:20;;;;;;;87.53;59.75;;;14.30;62.20;;;;;;5035825;27;91252;-52
2022/12/04 10:57:00;;;;;;;86.82;59.53;;;14.40;62.10;;;;;;5024702;27;90576;-51
2022/12/04 10:59:27;;;;;;;82.57;59.13;;;14.40;61.90;;;;;;5035762;27;90191;-52
2022/12/04 11:01:59;;;;;;;83.10;59.28;;;14.40;62.10;;;;;;5024864;27;90111;-52
2022/12/04 11:04:27;;;;;;;84.72;59.53;;;14.40;61.80;;;;;;5035673;27;89759;-50
2022/12/04 11:07:18;;;;;;;81.68;58.55;;;14.30;61.90;;;;;;5020290;27;91381;-52
2022/12/04 11:10:05;;;;;;;86.53;60.20;;;14.40;62.00;;;;;;5025765;27;90822;-51
2022/12/04 11:12:31;;;;;;;85.38;59.28;;;14.40;61.90;;;;;;5025907;27;90320;-51
2022/12/04 11:15:05;;;;;;;85.97;59.00;;;14.50;61.70;;;;;;5030967;27;89995;-49
2022/12/04 11:17:31;;;;;;;84.40;59.78;;;14.60;61.40;;;;;;5020837;27;91070;-53
2022/12/04 11:20:25;;;;;;;84.97;57.88;;;14.70;60.90;;;;;;5021767;27;90900;-50
2022/12/04 11:22:57;;;;;;;83.70;58.53;;;14.70;61.50;;;;;;5019029;27;91372;-52
2022/12/04 11:25:32;;;;;;;82.05;57.50;;;14.70;61.00;;;;;;5021923;27;89451;-52
2022/12/04 11:28:01;;;;;;;80.60;58.53;;;14.70;61.00;;;;;;5016449;27;90155;-50
2022/12/04 11:30:35;;;;;;;81.68;58.47;;;14.70;61.10;;;;;;5019582;27;90233;-47
2022/12/04 11:33:03;;;;;;;82.50;58.40;;;14.70;61.20;;;;;;5020894;27;90821;-52
2022/12/04 11:35:30;;;;;;;82.13;58.17;;;14.70;61.40;;;;;;5025606;27;90872;-51
2022/12/04 11:37:57;;;;;;;84.13;58.50;;;14.70;61.40;;;;;;5003011;27;92698;-49
2022/12/04 11:40:25;;;;;;;86.97;58.10;;;14.70;62.00;;;;;;5020448;27;90972;-51
2022/12/04 11:43:17;;;;;;;84.75;58.38;;;14.70;62.40;;;;;;5026762;27;94366;-53
2022/12/04 11:46:00;;;;;;;86.10;58.78;;;14.70;62.50;;;;;;4988260;27;91492;-57
2022/12/04 11:48:29;;;;;;;85.60;58.88;;;14.70;62.50;;;;;;5017644;27;96175;-54
2022/12/04 11:51:14;;;;;;;88.07;57.83;;;14.70;62.80;;;;;;5024234;27;91906;-51
2022/12/04 11:53:43;;;;;;;82.60;59.13;;;14.60;63.40;;;;;;5005512;27;91442;-46
2022/12/04 11:56:28;;;;;;;83.10;58.33;;;14.70;63.50;;;;;;5025262;27;92129;-51
2022/12/04 11:59:11;;;;;;;89.53;58.70;;;14.70;63.20;;;;;;5016882;27;91606;-50
2022/12/04 12:01:48;;;;;;;82.53;58.33;;;14.50;63.20;;;;;;5003324;27;91271;-48
2022/12/04 12:04:32;;;;;;;85.57;59.30;;;14.50;63.50;;;;;;5010794;27;90383;-50
2022/12/04 12:07:25;;;;;;;83.22;58.45;;;14.50;64.50;;;;;;4997197;27;90010;-50
2022/12/04 12:10:12;;;;;;;83.53;58.90;;;14.50;64.00;;;;;;5010882;27;91340;-47
2022/12/04 12:13:00;;;;;;;88.55;59.22;;;14.50;64.80;;;;;;5003875;27;91177;-52
2022/12/04 12:15:54;;;;;;;80.90;59.08;;;14.50;64.50;;;;;;5020298;27;90398;-48
2022/12/04 12:20:06;;;;;;;83.95;59.22;;;14.40;65.10;;;;;;5003408;27;84333;-47
2022/12/04 12:22:51;;;;;;;87.50;58.65;;;14.50;65.90;;;;;;5000746;27;87125;-50
2022/12/04 12:25:54;;;;;;;83.00;59.80;;;14.50;66.10;;;;;;5000794;27;85844;-51
2022/12/04 12:28:55;;;;;;;82.75;58.83;;;14.50;66.40;;;;;;5005854;27;85604;-49
2022/12/04 12:31:29;;;;;;;86.90;60.20;;;14.40;66.30;;;;;;5008834;27;85752;-50
2022/12/04 12:34:01;;;;;;;82.97;58.28;;;14.50;66.80;;;;;;4983679;27;86330;-48
2022/12/04 12:36:29;;;;;;;84.43;59.47;;;14.60;67.10;;;;;;4995433;27;92103;-50
2022/12/04 12:39:06;;;;;;;85.07;59.63;;;14.60;66.30;;;;;;5001619;27;85564;-53
2022/12/04 12:41:40;;;;;;;86.68;60.38;;;14.60;65.50;;;;;;5007770;27;85563;-51
2022/12/04 12:44:23;;;;;;;84.28;58.90;;;14.60;65.00;;;;;;4999328;27;86113;-52
2022/12/04 12:46:55;;;;;;;81.45;58.92;;;14.60;64.80;;;;;;4995706;27;86766;-52
2022/12/04 12:49:29;;;;;;;84.65;60.10;;;14.70;65.60;;;;;;5000850;27;86152;-51
2022/12/04 12:51:58;;;;;;;86.50;60.30;;;14.60;65.20;;;;;;5004073;27;87573;-58
2022/12/04 12:54:42;;;;;;;85.28;59.53;;;14.60;65.40;;;;;;5004570;27;85932;-57
2022/12/04 12:57:33;;;;;;;84.00;59.17;;;14.70;65.00;;;;;;5003264;27;90284;-51
2022/12/04 13:00:16;;;;;;;84.75;59.15;;;14.60;65.10;;;;;;5013449;27;85526;-53
2022/12/04 13:02:44;;;;;;;85.45;60.20;;;14.70;67.30;;;;;;5004390;27;86349;-54